sensor_id;sensor_type;location;lat;lon;timestamp;P1;durP1;ratioP1;P2;durP2;ratioP2
38513;SDS011;24282;48.400;10.808;2022-11-15T00:01:18;12.73;;;6.23;;
38513;SDS011;24282;48.400;10.808;2022-11-15T00:04:03;10.47;;;6.00;;
38513;SDS011;24282;48.400;10.808;2022-11-15T00:06:47;12.37;;;6.57;;
38513;SDS011;24282;48.400;10.808;2022-11-15T00:09:31;10.43;;;6.10;;
38513;SDS011;24282;48.400;10.808;2022-11-15T00:12:15;14.73;;;7.53;;
38513;SDS011;24282;48.400;10.808;2022-11-15T00:14:59;13.57;;;6.63;;
38513;SDS011;24282;48.400;10.808;2022-11-15T00:17:44;9.43;;;5.30;;
38513;SDS011;24282;48.400;10.808;2022-11-15T00:20:34;8.80;;;4.87;;
38513;SDS011;24282;48.400;10.808;2022-11-15T00:23:19;9.17;;;4.77;;
38513;SDS011;24282;48.400;10.808;2022-11-15T00:26:03;9.37;;;4.77;;
38513;SDS011;24282;48.400;10.808;2022-11-15T00:28:48;8.00;;;4.40;;
38513;SDS011;24282;48.400;10.808;2022-11-15T00:31:32;6.43;;;4.60;;
38513;SDS011;24282;48.400;10.808;2022-11-15T00:34:16;6.67;;;4.23;;
38513;SDS011;24282;48.400;10.808;2022-11-15T00:37:00;7.60;;;4.70;;
38513;SDS011;24282;48.400;10.808;2022-11-15T00:39:45;7.83;;;4.73;;
38513;SDS011;24282;48.400;10.808;2022-11-15T00:42:29;7.13;;;5.10;;
38513;SDS011;24282;48.400;10.808;2022-11-15T00:45:13;6.40;;;4.60;;
38513;SDS011;24282;48.400;10.808;2022-11-15T00:47:57;7.67;;;5.00;;
38513;SDS011;24282;48.400;10.808;2022-11-15T00:50:41;6.87;;;4.97;;
38513;SDS011;24282;48.400;10.808;2022-11-15T00:53:25;7.53;;;5.30;;
38513;SDS011;24282;48.400;10.808;2022-11-15T00:56:10;7.67;;;4.83;;
38513;SDS011;24282;48.400;10.808;2022-11-15T00:58:54;10.67;;;5.03;;
38513;SDS011;24282;48.400;10.808;2022-11-15T01:01:38;7.13;;;4.90;;
38513;SDS011;24282;48.400;10.808;2022-11-15T01:04:22;8.30;;;4.93;;
38513;SDS011;24282;48.400;10.808;2022-11-15T01:07:05;8.00;;;4.80;;
38513;SDS011;24282;48.400;10.808;2022-11-15T01:09:50;8.03;;;5.67;;
38513;SDS011;24282;48.400;10.808;2022-11-15T01:12:34;9.33;;;5.73;;
38513;SDS011;24282;48.400;10.808;2022-11-15T01:15:18;7.63;;;5.37;;
38513;SDS011;24282;48.400;10.808;2022-11-15T01:18:02;8.63;;;5.40;;
38513;SDS011;24282;48.400;10.808;2022-11-15T01:20:46;9.97;;;6.47;;
38513;SDS011;24282;48.400;10.808;2022-11-15T01:23:30;10.13;;;5.30;;
38513;SDS011;24282;48.400;10.808;2022-11-15T01:26:15;7.47;;;5.07;;
38513;SDS011;24282;48.400;10.808;2022-11-15T01:29:02;9.90;;;5.70;;
38513;SDS011;24282;48.400;10.808;2022-11-15T01:31:47;7.90;;;5.70;;
38513;SDS011;24282;48.400;10.808;2022-11-15T01:34:31;10.17;;;6.43;;
38513;SDS011;24282;48.400;10.808;2022-11-15T01:37:15;8.93;;;5.53;;
38513;SDS011;24282;48.400;10.808;2022-11-15T01:39:59;8.23;;;5.67;;
38513;SDS011;24282;48.400;10.808;2022-11-15T01:42:43;8.93;;;5.73;;
38513;SDS011;24282;48.400;10.808;2022-11-15T01:45:28;8.13;;;6.13;;
38513;SDS011;24282;48.400;10.808;2022-11-15T01:48:12;8.60;;;6.17;;
38513;SDS011;24282;48.400;10.808;2022-11-15T01:50:56;9.50;;;6.03;;
38513;SDS011;24282;48.400;10.808;2022-11-15T01:53:41;9.23;;;5.40;;
38513;SDS011;24282;48.400;10.808;2022-11-15T01:56:29;11.00;;;6.10;;
38513;SDS011;24282;48.400;10.808;2022-11-15T01:59:16;7.87;;;6.20;;
38513;SDS011;24282;48.400;10.808;2022-11-15T02:02:02;7.40;;;5.60;;
38513;SDS011;24282;48.400;10.808;2022-11-15T02:04:47;6.73;;;5.43;;
38513;SDS011;24282;48.400;10.808;2022-11-15T02:07:31;6.87;;;5.23;;
38513;SDS011;24282;48.400;10.808;2022-11-15T02:10:19;8.50;;;5.67;;
38513;SDS011;24282;48.400;10.808;2022-11-15T02:13:04;9.10;;;5.63;;
38513;SDS011;24282;48.400;10.808;2022-11-15T02:16:01;8.63;;;5.70;;
38513;SDS011;24282;48.400;10.808;2022-11-15T02:28:10;8.03;;;5.30;;
38513;SDS011;24282;48.400;10.808;2022-11-15T02:34:11;6.68;;;5.32;;
38513;SDS011;24282;48.400;10.808;2022-11-15T02:37:15;7.90;;;5.47;;
38513;SDS011;24282;48.400;10.808;2022-11-15T02:42:57;8.67;;;5.47;;
38513;SDS011;24282;48.400;10.808;2022-11-15T02:49:35;7.70;;;5.20;;
38513;SDS011;24282;48.400;10.808;2022-11-15T02:52:22;7.40;;;5.37;;
38513;SDS011;24282;48.400;10.808;2022-11-15T02:55:26;8.43;;;4.90;;
38513;SDS011;24282;48.400;10.808;2022-11-15T03:01:13;7.63;;;5.10;;
38513;SDS011;24282;48.400;10.808;2022-11-15T03:07:14;10.33;;;4.93;;
38513;SDS011;24282;48.400;10.808;2022-11-15T03:10:12;6.33;;;4.73;;
38513;SDS011;24282;48.400;10.808;2022-11-15T03:16:06;8.37;;;4.93;;
38513;SDS011;24282;48.400;10.808;2022-11-15T03:18:57;8.20;;;5.20;;
38513;SDS011;24282;48.400;10.808;2022-11-15T03:21:55;7.20;;;4.87;;
38513;SDS011;24282;48.400;10.808;2022-11-15T03:24:41;9.87;;;5.10;;
38513;SDS011;24282;48.400;10.808;2022-11-15T03:27:28;6.60;;;5.00;;
38513;SDS011;24282;48.400;10.808;2022-11-15T03:30:30;6.67;;;4.80;;
38513;SDS011;24282;48.400;10.808;2022-11-15T03:33:16;6.80;;;4.70;;
38513;SDS011;24282;48.400;10.808;2022-11-15T03:36:02;7.47;;;4.77;;
38513;SDS011;24282;48.400;10.808;2022-11-15T03:38:47;7.03;;;4.90;;
38513;SDS011;24282;48.400;10.808;2022-11-15T03:41:37;6.40;;;4.83;;
38513;SDS011;24282;48.400;10.808;2022-11-15T03:47:26;8.40;;;4.87;;
38513;SDS011;24282;48.400;10.808;2022-11-15T03:50:27;6.17;;;4.53;;
38513;SDS011;24282;48.400;10.808;2022-11-15T03:53:12;6.27;;;4.60;;
38513;SDS011;24282;48.400;10.808;2022-11-15T03:55:57;6.50;;;4.90;;
38513;SDS011;24282;48.400;10.808;2022-11-15T03:58:41;6.90;;;5.33;;
38513;SDS011;24282;48.400;10.808;2022-11-15T04:01:26;5.60;;;4.17;;
38513;SDS011;24282;48.400;10.808;2022-11-15T04:04:09;6.90;;;5.17;;
38513;SDS011;24282;48.400;10.808;2022-11-15T04:06:53;6.30;;;4.73;;
38513;SDS011;24282;48.400;10.808;2022-11-15T04:09:37;6.90;;;5.10;;
38513;SDS011;24282;48.400;10.808;2022-11-15T04:12:42;7.63;;;4.97;;
38513;SDS011;24282;48.400;10.808;2022-11-15T04:15:29;7.10;;;5.07;;
38513;SDS011;24282;48.400;10.808;2022-11-15T04:18:13;7.37;;;5.70;;
38513;SDS011;24282;48.400;10.808;2022-11-15T04:20:57;6.43;;;4.47;;
38513;SDS011;24282;48.400;10.808;2022-11-15T04:24:00;6.00;;;4.40;;
38513;SDS011;24282;48.400;10.808;2022-11-15T04:26:57;6.13;;;4.57;;
38513;SDS011;24282;48.400;10.808;2022-11-15T04:29:41;6.33;;;4.50;;
38513;SDS011;24282;48.400;10.808;2022-11-15T04:32:26;6.03;;;4.50;;
38513;SDS011;24282;48.400;10.808;2022-11-15T04:35:10;6.00;;;4.83;;
38513;SDS011;24282;48.400;10.808;2022-11-15T04:37:55;5.40;;;4.37;;
38513;SDS011;24282;48.400;10.808;2022-11-15T04:40:40;7.23;;;4.40;;
38513;SDS011;24282;48.400;10.808;2022-11-15T04:43:24;6.00;;;4.33;;
38513;SDS011;24282;48.400;10.808;2022-11-15T04:46:09;7.03;;;5.40;;
38513;SDS011;24282;48.400;10.808;2022-11-15T04:48:53;6.13;;;4.70;;
38513;SDS011;24282;48.400;10.808;2022-11-15T04:51:38;7.20;;;5.17;;
38513;SDS011;24282;48.400;10.808;2022-11-15T04:54:22;6.50;;;4.60;;
38513;SDS011;24282;48.400;10.808;2022-11-15T04:57:07;6.20;;;4.53;;
38513;SDS011;24282;48.400;10.808;2022-11-15T04:59:51;7.03;;;5.57;;
38513;SDS011;24282;48.400;10.808;2022-11-15T05:02:35;14.77;;;9.50;;
38513;SDS011;24282;48.400;10.808;2022-11-15T05:05:38;12.60;;;8.87;;
38513;SDS011;24282;48.400;10.808;2022-11-15T05:08:22;11.33;;;7.00;;
38513;SDS011;24282;48.400;10.808;2022-11-15T05:11:06;8.07;;;5.63;;
38513;SDS011;24282;48.400;10.808;2022-11-15T05:13:50;8.13;;;5.73;;
38513;SDS011;24282;48.400;10.808;2022-11-15T05:16:34;8.03;;;5.13;;
38513;SDS011;24282;48.400;10.808;2022-11-15T05:19:19;6.20;;;4.80;;
38513;SDS011;24282;48.400;10.808;2022-11-15T05:22:03;6.90;;;4.97;;
38513;SDS011;24282;48.400;10.808;2022-11-15T05:24:47;6.73;;;4.90;;
38513;SDS011;24282;48.400;10.808;2022-11-15T05:27:32;6.30;;;4.90;;
38513;SDS011;24282;48.400;10.808;2022-11-15T05:30:17;6.80;;;5.03;;
38513;SDS011;24282;48.400;10.808;2022-11-15T05:33:02;6.67;;;5.13;;
38513;SDS011;24282;48.400;10.808;2022-11-15T05:35:48;10.23;;;6.37;;
38513;SDS011;24282;48.400;10.808;2022-11-15T05:38:38;9.63;;;6.30;;
38513;SDS011;24282;48.400;10.808;2022-11-15T05:41:33;7.07;;;5.20;;
38513;SDS011;24282;48.400;10.808;2022-11-15T05:44:23;7.30;;;5.40;;
38513;SDS011;24282;48.400;10.808;2022-11-15T05:47:10;7.17;;;6.07;;
38513;SDS011;24282;48.400;10.808;2022-11-15T05:49:59;7.17;;;5.37;;
38513;SDS011;24282;48.400;10.808;2022-11-15T05:52:43;9.50;;;7.03;;
38513;SDS011;24282;48.400;10.808;2022-11-15T05:55:28;8.60;;;7.03;;
38513;SDS011;24282;48.400;10.808;2022-11-15T05:58:12;7.50;;;6.10;;
38513;SDS011;24282;48.400;10.808;2022-11-15T06:00:57;7.43;;;5.87;;
38513;SDS011;24282;48.400;10.808;2022-11-15T06:03:41;7.17;;;5.97;;
38513;SDS011;24282;48.400;10.808;2022-11-15T06:06:27;9.50;;;5.53;;
38513;SDS011;24282;48.400;10.808;2022-11-15T06:09:11;7.47;;;5.50;;
38513;SDS011;24282;48.400;10.808;2022-11-15T06:11:56;7.97;;;5.27;;
38513;SDS011;24282;48.400;10.808;2022-11-15T06:14:40;7.47;;;5.70;;
38513;SDS011;24282;48.400;10.808;2022-11-15T06:17:24;8.50;;;5.90;;
38513;SDS011;24282;48.400;10.808;2022-11-15T06:20:08;8.00;;;6.07;;
38513;SDS011;24282;48.400;10.808;2022-11-15T06:23:00;7.50;;;5.93;;
38513;SDS011;24282;48.400;10.808;2022-11-15T06:25:46;7.25;;;6.15;;
38513;SDS011;24282;48.400;10.808;2022-11-15T06:28:31;8.43;;;6.27;;
38513;SDS011;24282;48.400;10.808;2022-11-15T06:31:16;8.97;;;6.83;;
38513;SDS011;24282;48.400;10.808;2022-11-15T06:34:00;7.20;;;6.10;;
38513;SDS011;24282;48.400;10.808;2022-11-15T06:36:44;8.07;;;6.70;;
38513;SDS011;24282;48.400;10.808;2022-11-15T06:39:29;8.60;;;6.37;;
38513;SDS011;24282;48.400;10.808;2022-11-15T06:42:13;8.77;;;5.77;;
38513;SDS011;24282;48.400;10.808;2022-11-15T06:44:57;7.97;;;5.80;;
38513;SDS011;24282;48.400;10.808;2022-11-15T06:47:45;7.53;;;6.00;;
38513;SDS011;24282;48.400;10.808;2022-11-15T06:50:30;10.33;;;5.97;;
38513;SDS011;24282;48.400;10.808;2022-11-15T06:53:14;7.00;;;5.37;;
38513;SDS011;24282;48.400;10.808;2022-11-15T06:55:58;6.37;;;5.27;;
38513;SDS011;24282;48.400;10.808;2022-11-15T06:58:44;8.87;;;5.83;;
38513;SDS011;24282;48.400;10.808;2022-11-15T07:01:28;7.70;;;5.77;;
38513;SDS011;24282;48.400;10.808;2022-11-15T07:04:12;8.47;;;5.23;;
38513;SDS011;24282;48.400;10.808;2022-11-15T07:06:56;7.57;;;5.43;;
38513;SDS011;24282;48.400;10.808;2022-11-15T07:09:40;8.03;;;5.97;;
38513;SDS011;24282;48.400;10.808;2022-11-15T07:12:25;8.60;;;6.30;;
38513;SDS011;24282;48.400;10.808;2022-11-15T07:15:09;8.23;;;6.33;;
38513;SDS011;24282;48.400;10.808;2022-11-15T07:17:53;8.27;;;6.13;;
38513;SDS011;24282;48.400;10.808;2022-11-15T07:20:37;10.33;;;6.23;;
38513;SDS011;24282;48.400;10.808;2022-11-15T07:23:22;7.70;;;5.87;;
38513;SDS011;24282;48.400;10.808;2022-11-15T07:26:07;6.97;;;5.40;;
38513;SDS011;24282;48.400;10.808;2022-11-15T07:28:51;8.10;;;5.17;;
38513;SDS011;24282;48.400;10.808;2022-11-15T07:31:36;7.80;;;5.50;;
38513;SDS011;24282;48.400;10.808;2022-11-15T07:34:20;7.37;;;5.27;;
38513;SDS011;24282;48.400;10.808;2022-11-15T07:37:04;8.07;;;5.67;;
38513;SDS011;24282;48.400;10.808;2022-11-15T07:39:49;7.60;;;5.67;;
38513;SDS011;24282;48.400;10.808;2022-11-15T07:42:33;6.03;;;4.90;;
38513;SDS011;24282;48.400;10.808;2022-11-15T07:45:40;6.67;;;4.97;;
38513;SDS011;24282;48.400;10.808;2022-11-15T07:48:28;7.03;;;5.63;;
38513;SDS011;24282;48.400;10.808;2022-11-15T07:51:13;7.00;;;4.93;;
38513;SDS011;24282;48.400;10.808;2022-11-15T07:53:59;9.93;;;5.43;;
38513;SDS011;24282;48.400;10.808;2022-11-15T07:56:44;8.27;;;6.13;;
38513;SDS011;24282;48.400;10.808;2022-11-15T07:59:28;11.07;;;5.93;;
38513;SDS011;24282;48.400;10.808;2022-11-15T08:02:12;8.43;;;5.47;;
38513;SDS011;24282;48.400;10.808;2022-11-15T08:04:57;6.43;;;4.87;;
38513;SDS011;24282;48.400;10.808;2022-11-15T08:07:41;8.70;;;6.03;;
38513;SDS011;24282;48.400;10.808;2022-11-15T08:10:26;9.23;;;6.30;;
38513;SDS011;24282;48.400;10.808;2022-11-15T08:13:11;9.30;;;5.90;;
38513;SDS011;24282;48.400;10.808;2022-11-15T08:15:59;7.60;;;5.83;;
38513;SDS011;24282;48.400;10.808;2022-11-15T08:18:45;9.13;;;5.77;;
38513;SDS011;24282;48.400;10.808;2022-11-15T08:21:30;9.77;;;6.83;;
38513;SDS011;24282;48.400;10.808;2022-11-15T08:24:14;6.47;;;5.57;;
38513;SDS011;24282;48.400;10.808;2022-11-15T08:26:59;7.63;;;5.37;;
38513;SDS011;24282;48.400;10.808;2022-11-15T08:29:43;10.77;;;6.07;;
38513;SDS011;24282;48.400;10.808;2022-11-15T08:32:28;9.17;;;6.53;;
38513;SDS011;24282;48.400;10.808;2022-11-15T08:35:14;10.87;;;7.30;;
38513;SDS011;24282;48.400;10.808;2022-11-15T08:37:58;10.77;;;8.33;;
38513;SDS011;24282;48.400;10.808;2022-11-15T08:40:42;11.90;;;8.00;;
38513;SDS011;24282;48.400;10.808;2022-11-15T08:43:26;13.50;;;7.70;;
38513;SDS011;24282;48.400;10.808;2022-11-15T08:46:11;11.40;;;8.30;;
38513;SDS011;24282;48.400;10.808;2022-11-15T08:48:57;12.00;;;8.77;;
38513;SDS011;24282;48.400;10.808;2022-11-15T08:51:41;13.23;;;8.43;;
38513;SDS011;24282;48.400;10.808;2022-11-15T08:54:26;10.43;;;7.63;;
38513;SDS011;24282;48.400;10.808;2022-11-15T08:57:10;12.50;;;8.00;;
38513;SDS011;24282;48.400;10.808;2022-11-15T08:59:54;12.97;;;8.07;;
38513;SDS011;24282;48.400;10.808;2022-11-15T09:02:38;11.43;;;7.67;;
38513;SDS011;24282;48.400;10.808;2022-11-15T09:05:23;11.60;;;7.77;;
38513;SDS011;24282;48.400;10.808;2022-11-15T09:08:07;12.47;;;8.10;;
38513;SDS011;24282;48.400;10.808;2022-11-15T09:10:51;12.47;;;8.33;;
38513;SDS011;24282;48.400;10.808;2022-11-15T09:13:36;11.83;;;8.37;;
38513;SDS011;24282;48.400;10.808;2022-11-15T09:16:20;11.07;;;8.23;;
38513;SDS011;24282;48.400;10.808;2022-11-15T09:19:05;10.70;;;7.80;;
38513;SDS011;24282;48.400;10.808;2022-11-15T09:21:49;10.60;;;7.13;;
38513;SDS011;24282;48.400;10.808;2022-11-15T09:24:34;9.03;;;6.90;;
38513;SDS011;24282;48.400;10.808;2022-11-15T09:27:18;10.77;;;7.53;;
38513;SDS011;24282;48.400;10.808;2022-11-15T09:30:02;12.63;;;7.93;;
38513;SDS011;24282;48.400;10.808;2022-11-15T09:32:47;10.83;;;7.97;;
38513;SDS011;24282;48.400;10.808;2022-11-15T09:35:31;12.47;;;7.67;;
38513;SDS011;24282;48.400;10.808;2022-11-15T09:38:15;13.87;;;8.10;;
38513;SDS011;24282;48.400;10.808;2022-11-15T09:50:27;11.50;;;9.17;;
38513;SDS011;24282;48.400;10.808;2022-11-15T09:52:54;11.40;;;8.63;;
38513;SDS011;24282;48.400;10.808;2022-11-15T09:55:20;11.67;;;8.37;;
38513;SDS011;24282;48.400;10.808;2022-11-15T09:58:10;16.30;;;8.60;;
38513;SDS011;24282;48.400;10.808;2022-11-15T10:01:10;10.75;;;7.93;;
38513;SDS011;24282;48.400;10.808;2022-11-15T10:04:00;10.98;;;7.75;;
38513;SDS011;24282;48.400;10.808;2022-11-15T10:06:26;8.57;;;7.30;;
38513;SDS011;24282;48.400;10.808;2022-11-15T10:11:43;10.07;;;6.83;;
38513;SDS011;24282;48.400;10.808;2022-11-15T10:14:10;13.07;;;7.33;;
38513;SDS011;24282;48.400;10.808;2022-11-15T10:24:50;9.63;;;7.23;;
38513;SDS011;24282;48.400;10.808;2022-11-15T10:27:25;11.47;;;6.93;;
38513;SDS011;24282;48.400;10.808;2022-11-15T10:29:50;8.93;;;6.80;;
38513;SDS011;24282;48.400;10.808;2022-11-15T10:32:17;10.33;;;5.87;;
38513;SDS011;24282;48.400;10.808;2022-11-15T10:34:46;11.27;;;7.20;;
38513;SDS011;24282;48.400;10.808;2022-11-15T10:37:12;7.37;;;6.00;;
38513;SDS011;24282;48.400;10.808;2022-11-15T10:39:38;11.00;;;5.37;;
38513;SDS011;24282;48.400;10.808;2022-11-15T10:44:42;6.37;;;5.20;;
38513;SDS011;24282;48.400;10.808;2022-11-15T10:47:22;7.17;;;5.20;;
38513;SDS011;24282;48.400;10.808;2022-11-15T10:49:57;8.40;;;6.00;;
38513;SDS011;24282;48.400;10.808;2022-11-15T10:52:25;6.73;;;5.30;;
38513;SDS011;24282;48.400;10.808;2022-11-15T10:57:36;9.53;;;5.90;;
38513;SDS011;24282;48.400;10.808;2022-11-15T11:00:07;6.50;;;4.70;;
38513;SDS011;24282;48.400;10.808;2022-11-15T11:08:21;7.67;;;4.73;;
38513;SDS011;24282;48.400;10.808;2022-11-15T11:10:52;6.60;;;4.77;;
38513;SDS011;24282;48.400;10.808;2022-11-15T11:13:32;7.63;;;4.77;;
38513;SDS011;24282;48.400;10.808;2022-11-15T11:21:17;7.30;;;4.27;;
38513;SDS011;24282;48.400;10.808;2022-11-15T11:23:55;6.57;;;3.80;;
38513;SDS011;24282;48.400;10.808;2022-11-15T11:29:09;5.37;;;3.40;;
38513;SDS011;24282;48.400;10.808;2022-11-15T11:40:04;5.63;;;4.10;;
38513;SDS011;24282;48.400;10.808;2022-11-15T11:50:43;5.40;;;3.80;;
38513;SDS011;24282;48.400;10.808;2022-11-15T11:53:29;7.47;;;4.53;;
38513;SDS011;24282;48.400;10.808;2022-11-15T11:56:04;5.20;;;4.07;;
38513;SDS011;24282;48.400;10.808;2022-11-15T11:58:43;5.53;;;3.93;;
38513;SDS011;24282;48.400;10.808;2022-11-15T12:06:04;5.20;;;3.30;;
38513;SDS011;24282;48.400;10.808;2022-11-15T12:08:47;4.63;;;3.23;;
38513;SDS011;24282;48.400;10.808;2022-11-15T12:14:12;7.37;;;3.40;;
38513;SDS011;24282;48.400;10.808;2022-11-15T12:17:04;4.53;;;3.43;;
38513;SDS011;24282;48.400;10.808;2022-11-15T12:19:32;6.93;;;3.63;;
38513;SDS011;24282;48.400;10.808;2022-11-15T12:22:06;5.03;;;3.30;;
38513;SDS011;24282;48.400;10.808;2022-11-15T12:24:45;4.47;;;3.37;;
38513;SDS011;24282;48.400;10.808;2022-11-15T12:30:18;4.10;;;3.00;;
38513;SDS011;24282;48.400;10.808;2022-11-15T12:32:58;4.53;;;3.27;;
38513;SDS011;24282;48.400;10.808;2022-11-15T12:38:00;5.23;;;3.73;;
38513;SDS011;24282;48.400;10.808;2022-11-15T12:40:33;5.03;;;3.60;;
38513;SDS011;24282;48.400;10.808;2022-11-15T12:45:39;4.70;;;3.17;;
38513;SDS011;24282;48.400;10.808;2022-11-15T13:10:07;5.23;;;3.30;;
38513;SDS011;24282;48.400;10.808;2022-11-15T13:14:52;4.43;;;3.07;;
38513;SDS011;24282;48.400;10.808;2022-11-15T13:17:27;4.93;;;3.47;;
38513;SDS011;24282;48.400;10.808;2022-11-15T13:19:59;6.00;;;3.20;;
38513;SDS011;24282;48.400;10.808;2022-11-15T13:22:39;5.03;;;3.60;;
38513;SDS011;24282;48.400;10.808;2022-11-15T13:33:46;5.07;;;3.73;;
38513;SDS011;24282;48.400;10.808;2022-11-15T13:39:02;6.82;;;3.80;;
38513;SDS011;24282;48.400;10.808;2022-11-15T13:41:44;4.20;;;2.83;;
38513;SDS011;24282;48.400;10.808;2022-11-15T13:44:19;6.50;;;3.30;;
38513;SDS011;24282;48.400;10.808;2022-11-15T13:47:03;4.57;;;3.20;;
38513;SDS011;24282;48.400;10.808;2022-11-15T13:49:38;5.87;;;3.23;;
38513;SDS011;24282;48.400;10.808;2022-11-15T13:52:06;4.53;;;3.43;;
38513;SDS011;24282;48.400;10.808;2022-11-15T13:54:46;5.27;;;3.50;;
38513;SDS011;24282;48.400;10.808;2022-11-15T13:57:26;4.90;;;3.40;;
38513;SDS011;24282;48.400;10.808;2022-11-15T14:00:06;4.97;;;3.70;;
38513;SDS011;24282;48.400;10.808;2022-11-15T14:02:49;5.53;;;3.23;;
38513;SDS011;24282;48.400;10.808;2022-11-15T14:05:16;5.03;;;3.30;;
38513;SDS011;24282;48.400;10.808;2022-11-15T14:10:30;6.70;;;3.50;;
38513;SDS011;24282;48.400;10.808;2022-11-15T14:13:01;4.87;;;3.57;;
38513;SDS011;24282;48.400;10.808;2022-11-15T14:15:35;9.13;;;6.20;;
38513;SDS011;24282;48.400;10.808;2022-11-15T14:18:03;11.17;;;6.97;;
38513;SDS011;24282;48.400;10.808;2022-11-15T14:23:04;4.53;;;3.27;;
38513;SDS011;24282;48.400;10.808;2022-11-15T14:25:33;7.23;;;4.73;;
38513;SDS011;24282;48.400;10.808;2022-11-15T14:28:11;5.37;;;3.57;;
38513;SDS011;24282;48.400;10.808;2022-11-15T14:30:41;3.80;;;2.87;;
38513;SDS011;24282;48.400;10.808;2022-11-15T14:35:51;3.95;;;2.45;;
38513;SDS011;24282;48.400;10.808;2022-11-15T14:38:17;5.30;;;3.03;;
38513;SDS011;24282;48.400;10.808;2022-11-15T14:40:44;6.70;;;3.50;;
38513;SDS011;24282;48.400;10.808;2022-11-15T14:43:10;3.97;;;2.90;;
38513;SDS011;24282;48.400;10.808;2022-11-15T14:45:37;5.47;;;3.13;;
38513;SDS011;24282;48.400;10.808;2022-11-15T14:48:03;4.47;;;3.20;;
38513;SDS011;24282;48.400;10.808;2022-11-15T14:50:29;5.30;;;3.50;;
38513;SDS011;24282;48.400;10.808;2022-11-15T14:52:55;5.07;;;3.57;;
38513;SDS011;24282;48.400;10.808;2022-11-15T14:55:22;5.73;;;4.03;;
38513;SDS011;24282;48.400;10.808;2022-11-15T14:58:04;8.43;;;5.70;;
38513;SDS011;24282;48.400;10.808;2022-11-15T15:00:35;8.50;;;5.77;;
38513;SDS011;24282;48.400;10.808;2022-11-15T15:03:02;7.53;;;5.33;;
38513;SDS011;24282;48.400;10.808;2022-11-15T15:05:33;5.50;;;4.03;;
38513;SDS011;24282;48.400;10.808;2022-11-15T15:08:00;7.23;;;4.13;;
38513;SDS011;24282;48.400;10.808;2022-11-15T15:10:27;5.57;;;4.03;;
38513;SDS011;24282;48.400;10.808;2022-11-15T15:12:58;7.07;;;4.67;;
38513;SDS011;24282;48.400;10.808;2022-11-15T15:15:24;6.03;;;4.20;;
38513;SDS011;24282;48.400;10.808;2022-11-15T15:17:52;6.67;;;4.70;;
38513;SDS011;24282;48.400;10.808;2022-11-15T15:20:18;5.60;;;3.90;;
38513;SDS011;24282;48.400;10.808;2022-11-15T15:22:43;6.97;;;4.33;;
38513;SDS011;24282;48.400;10.808;2022-11-15T15:27:46;6.07;;;3.60;;
38513;SDS011;24282;48.400;10.808;2022-11-15T15:30:11;5.27;;;3.60;;
38513;SDS011;24282;48.400;10.808;2022-11-15T15:32:37;5.03;;;3.60;;
38513;SDS011;24282;48.400;10.808;2022-11-15T15:35:03;5.50;;;4.07;;
38513;SDS011;24282;48.400;10.808;2022-11-15T15:37:29;5.47;;;3.30;;
38513;SDS011;24282;48.400;10.808;2022-11-15T15:39:58;5.10;;;3.70;;
38513;SDS011;24282;48.400;10.808;2022-11-15T15:42:23;4.80;;;3.40;;
38513;SDS011;24282;48.400;10.808;2022-11-15T15:44:49;5.27;;;3.47;;
38513;SDS011;24282;48.400;10.808;2022-11-15T15:47:22;4.60;;;3.37;;
38513;SDS011;24282;48.400;10.808;2022-11-15T15:49:49;5.78;;;3.60;;
38513;SDS011;24282;48.400;10.808;2022-11-15T15:52:15;5.43;;;3.37;;
38513;SDS011;24282;48.400;10.808;2022-11-15T15:54:42;4.90;;;3.10;;
38513;SDS011;24282;48.400;10.808;2022-11-15T15:57:08;3.60;;;2.77;;
38513;SDS011;24282;48.400;10.808;2022-11-15T15:59:37;5.17;;;3.67;;
38513;SDS011;24282;48.400;10.808;2022-11-15T16:02:03;4.60;;;3.30;;
38513;SDS011;24282;48.400;10.808;2022-11-15T16:04:29;7.07;;;4.17;;
38513;SDS011;24282;48.400;10.808;2022-11-15T16:06:58;5.63;;;3.63;;
38513;SDS011;24282;48.400;10.808;2022-11-15T16:09:25;5.23;;;3.83;;
38513;SDS011;24282;48.400;10.808;2022-11-15T16:12:09;5.70;;;3.73;;
38513;SDS011;24282;48.400;10.808;2022-11-15T16:14:35;5.00;;;3.77;;
38513;SDS011;24282;48.400;10.808;2022-11-15T16:17:01;5.73;;;3.70;;
38513;SDS011;24282;48.400;10.808;2022-11-15T16:19:27;4.40;;;3.17;;
38513;SDS011;24282;48.400;10.808;2022-11-15T16:21:53;6.13;;;3.40;;
38513;SDS011;24282;48.400;10.808;2022-11-15T16:24:19;4.63;;;3.30;;
38513;SDS011;24282;48.400;10.808;2022-11-15T16:26:46;3.57;;;2.77;;
38513;SDS011;24282;48.400;10.808;2022-11-15T16:29:13;3.77;;;2.80;;
38513;SDS011;24282;48.400;10.808;2022-11-15T16:31:39;4.30;;;2.90;;
38513;SDS011;24282;48.400;10.808;2022-11-15T16:34:05;5.97;;;3.50;;
38513;SDS011;24282;48.400;10.808;2022-11-15T16:36:33;7.20;;;4.87;;
38513;SDS011;24282;48.400;10.808;2022-11-15T16:39:00;7.30;;;4.37;;
38513;SDS011;24282;48.400;10.808;2022-11-15T16:41:29;5.90;;;4.13;;
38513;SDS011;24282;48.400;10.808;2022-11-15T16:43:55;6.60;;;4.70;;
38513;SDS011;24282;48.400;10.808;2022-11-15T16:46:22;5.87;;;3.83;;
38513;SDS011;24282;48.400;10.808;2022-11-15T16:48:51;5.70;;;3.90;;
38513;SDS011;24282;48.400;10.808;2022-11-15T16:51:20;5.33;;;3.83;;
38513;SDS011;24282;48.400;10.808;2022-11-15T16:53:47;5.00;;;3.83;;
38513;SDS011;24282;48.400;10.808;2022-11-15T16:56:23;5.70;;;4.13;;
38513;SDS011;24282;48.400;10.808;2022-11-15T16:58:51;6.30;;;4.17;;
38513;SDS011;24282;48.400;10.808;2022-11-15T17:01:21;5.43;;;4.03;;
38513;SDS011;24282;48.400;10.808;2022-11-15T17:03:48;5.47;;;3.83;;
38513;SDS011;24282;48.400;10.808;2022-11-15T17:06:15;5.63;;;4.20;;
38513;SDS011;24282;48.400;10.808;2022-11-15T17:08:42;7.23;;;5.10;;
38513;SDS011;24282;48.400;10.808;2022-11-15T17:11:10;9.27;;;6.13;;
38513;SDS011;24282;48.400;10.808;2022-11-15T17:13:39;9.10;;;6.60;;
38513;SDS011;24282;48.400;10.808;2022-11-15T17:16:05;7.97;;;5.73;;
38513;SDS011;24282;48.400;10.808;2022-11-15T17:18:33;9.07;;;6.77;;
38513;SDS011;24282;48.400;10.808;2022-11-15T17:21:03;9.83;;;7.43;;
38513;SDS011;24282;48.400;10.808;2022-11-15T17:23:34;9.83;;;5.63;;
38513;SDS011;24282;48.400;10.808;2022-11-15T17:26:00;7.73;;;5.33;;
38513;SDS011;24282;48.400;10.808;2022-11-15T17:28:28;9.23;;;5.80;;
38513;SDS011;24282;48.400;10.808;2022-11-15T17:30:54;12.57;;;7.70;;
38513;SDS011;24282;48.400;10.808;2022-11-15T17:33:20;19.60;;;11.43;;
38513;SDS011;24282;48.400;10.808;2022-11-15T17:35:46;20.40;;;11.87;;
38513;SDS011;24282;48.400;10.808;2022-11-15T17:38:18;19.73;;;11.90;;
38513;SDS011;24282;48.400;10.808;2022-11-15T17:40:46;19.10;;;11.23;;
38513;SDS011;24282;48.400;10.808;2022-11-15T17:43:12;22.27;;;12.43;;
38513;SDS011;24282;48.400;10.808;2022-11-15T17:45:41;17.20;;;10.83;;
38513;SDS011;24282;48.400;10.808;2022-11-15T17:48:06;18.77;;;11.40;;
38513;SDS011;24282;48.400;10.808;2022-11-15T17:50:32;18.97;;;11.37;;
38513;SDS011;24282;48.400;10.808;2022-11-15T17:52:58;19.37;;;10.70;;
38513;SDS011;24282;48.400;10.808;2022-11-15T17:55:24;14.47;;;9.13;;
38513;SDS011;24282;48.400;10.808;2022-11-15T17:57:50;12.83;;;8.70;;
38513;SDS011;24282;48.400;10.808;2022-11-15T18:00:16;13.70;;;7.83;;
38513;SDS011;24282;48.400;10.808;2022-11-15T18:02:45;15.17;;;8.50;;
38513;SDS011;24282;48.400;10.808;2022-11-15T18:05:13;11.87;;;7.83;;
38513;SDS011;24282;48.400;10.808;2022-11-15T18:07:42;13.70;;;8.60;;
38513;SDS011;24282;48.400;10.808;2022-11-15T18:10:08;11.90;;;8.33;;